Time;durP1;ratioP1;P1;durP2;ratioP2;P2;SDS_P1;SDS_P2;PMS_P1;PMS_P2;Temp;Humidity;BMP_temperature;BMP_pressure;BME280_temperature;BME280_humidity;BME280_pressure;Samples;Min_cycle;Max_cycle;Signal;HPM_P1;HPM_P2
2023/05/28 00:00:45;;;;;;;16.62;15.05;;;;;;;7.56;57.06;101084.15;1679577;85;25523;-55
2023/05/28 00:03:17;;;;;;;18.48;16.75;;;;;;;7.50;57.25;101079.31;1679664;85;25658;-54
2023/05/28 00:05:41;;;;;;;9.88;6.97;;;;;;;7.46;56.97;101075.55;1679383;85;25620;-52
2023/05/28 00:08:07;;;;;;;11.03;3.60;;;;;;;7.44;57.66;101074.98;1679726;85;32309;-52
2023/05/28 00:10:34;;;;;;;7.50;3.60;;;;;;;7.41;58.03;101080.94;1679749;85;27420;-54
2023/05/28 00:13:01;;;;;;;79.37;74.07;;;;;;;7.35;58.06;101083.34;1679707;85;25569;-57
2023/05/28 00:15:27;;;;;;;81.35;75.65;;;;;;;7.28;58.26;101080.91;1679779;85;25656;-54
2023/05/28 00:17:54;;;;;;;67.30;62.65;;;;;;;7.26;58.34;101083.06;1679735;85;25661;-53
2023/05/28 00:20:20;;;;;;;85.25;79.17;;;;;;;7.23;58.47;101079.01;1679791;85;25651;-53
2023/05/28 00:22:47;;;;;;;78.50;72.72;;;;;;;7.20;58.42;101082.26;1679772;85;27440;-56
2023/05/28 00:25:13;;;;;;;78.42;73.05;;;;;;;7.16;58.08;101077.13;1679756;85;25699;-56
2023/05/28 00:27:40;;;;;;;76.55;70.87;;;;;;;7.13;58.33;101078.19;1679371;85;25661;-54
2023/05/28 00:30:08;;;;;;;80.15;74.45;;;;;;;7.08;58.51;101066.88;1679004;85;26154;-56
2023/05/28 00:32:34;;;;;;;28.32;26.17;;;;;;;7.05;58.43;101068.23;1679801;85;25590;-56
2023/05/28 00:35:00;;;;;;;81.28;75.67;;;;;;;7.06;58.88;101071.72;1708454;83;27282;-56
2023/05/28 00:37:26;;;;;;;79.92;74.53;;;;;;;6.98;58.47;101065.00;1710119;83;25481;-54
2023/05/28 00:39:52;;;;;;;10.80;4.08;;;;;;;6.96;58.32;101075.19;1710319;83;25637;-53
2023/05/28 00:42:18;;;;;;;10.85;3.95;;;;;;;6.95;58.67;101069.56;1710258;83;35443;-52
2023/05/28 00:44:45;;;;;;;14.03;4.15;;;;;;;6.91;58.96;101073.83;1710302;83;25644;-55
2023/05/28 00:47:14;;;;;;;6.05;3.47;;;;;;;6.89;58.69;101070.61;1710268;83;27401;-55
2023/05/28 00:49:42;;;;;;;6.87;4.47;;;;;;;6.84;59.29;101070.59;1710262;83;25597;-52
2023/05/28 00:52:10;;;;;;;87.90;81.53;;;;;;;6.77;59.30;101064.66;1710250;83;25585;-55
2023/05/28 00:54:38;;;;;;;82.72;77.00;;;;;;;6.69;59.84;101062.77;1710198;83;25693;-54
2023/05/28 00:57:05;;;;;;;89.75;83.62;;;;;;;6.68;59.96;101064.37;1710228;83;25567;-54
2023/05/28 00:59:36;;;;;;;84.55;78.47;;;;;;;6.63;60.05;101061.12;1710222;83;27362;-53
2023/05/28 01:02:02;;;;;;;83.65;77.53;;;;;;;6.60;59.96;101067.56;1710189;83;25789;-53
2023/05/28 01:04:32;;;;;;;82.70;76.80;;;;;;;6.57;60.43;101060.02;1710272;83;25731;-51
2023/05/28 01:07:00;;;;;;;82.97;77.22;;;;;;;6.53;60.62;101052.47;1710327;83;34617;-55
2023/05/28 01:09:26;;;;;;;80.53;74.62;;;;;;;6.52;60.66;101055.42;1710295;83;25596;-53
2023/05/28 01:11:54;;;;;;;26.02;23.95;;;;;;;6.49;60.55;101058.66;1710196;83;27361;-54
2023/05/28 01:14:24;;;;;;;80.90;75.32;;;;;;;6.45;60.65;101058.89;1710147;83;25602;-55
2023/05/28 01:16:50;;;;;;;;;;;;;;;6.41;60.59;101051.89;1712766;83;25453;-54
2023/05/28 01:19:36;;;;;;;5.00;3.05;;;;;;;6.47;60.29;101054.88;1925039;74;34640;-53
2023/05/28 01:22:05;;;;;;;6.97;3.52;;;;;;;6.38;60.12;101051.61;1822221;78;25450;-53
2023/05/28 01:24:36;;;;;;;11.53;3.90;;;;;;;6.33;60.22;101044.33;1855944;77;27475;-52
2023/05/28 01:27:03;;;;;;;7.65;3.98;;;;;;;6.29;60.28;101050.76;1822075;78;25398;-52
2023/05/28 01:29:29;;;;;;;8.80;3.95;;;;;;;6.25;61.10;101048.84;1854564;77;25690;-52
2023/05/28 01:31:56;;;;;;;10.93;4.12;;;;;;;6.20;61.28;101038.91;1821519;78;25608;-53
2023/05/28 01:34:24;;;;;;;7.92;3.85;;;;;;;6.15;61.14;101034.30;1855697;77;25410;-54
2023/05/28 01:37:02;;;;;;;8.00;3.80;;;;;;;6.12;61.02;101036.16;1822139;78;27644;-53
2023/05/28 01:39:35;;;;;;;6.50;3.67;;;;;;;6.09;61.07;101032.66;1855572;77;25362;-55
2023/05/28 01:42:05;;;;;;;5.45;3.75;;;;;;;6.05;60.92;101027.54;1822180;78;25390;-51
2023/05/28 01:44:33;;;;;;;5.15;3.58;;;;;;;6.02;61.77;101028.59;1855037;77;25845;-53
2023/05/28 01:47:00;;;;;;;7.53;4.40;;;;;;;5.97;61.48;101030.17;1822179;78;25621;-52
2023/05/28 01:49:27;;;;;;;11.90;4.87;;;;;;;5.95;61.23;101030.14;1855692;77;28235;-54
2023/05/28 01:51:53;;;;;;;12.45;6.10;;;;;;;5.92;61.53;101029.31;1822052;78;25457;-52
2023/05/28 01:54:20;;;;;;;9.80;4.95;;;;;;;5.91;61.79;101024.48;1855682;77;25529;-52
2023/05/28 01:56:46;;;;;;;9.25;4.45;;;;;;;5.89;62.19;101027.97;1822087;78;25819;-52
2023/05/28 01:59:12;;;;;;;7.58;4.42;;;;;;;5.87;62.28;101026.59;1855628;77;27531;-55
2023/05/28 02:01:39;;;;;;;7.28;4.42;;;;;;;5.85;62.45;101023.36;1822085;78;27473;-52
2023/05/28 02:04:05;;;;;;;8.55;4.03;;;;;;;5.82;62.64;101015.28;1855612;77;25347;-52
2023/05/28 02:06:34;;;;;;;8.98;3.90;;;;;;;5.80;62.68;101018.22;1822225;78;25544;-55
2023/05/28 02:09:01;;;;;;;9.83;5.10;;;;;;;5.79;62.77;101020.65;1855878;77;25469;-52
2023/05/28 02:11:28;;;;;;;7.50;5.10;;;;;;;5.76;63.12;101019.02;1822100;78;25375;-51
2023/05/28 02:13:55;;;;;;;85.57;79.60;;;;;;;5.72;62.88;101013.36;1855658;77;28169;-51
2023/05/28 02:16:22;;;;;;;6.58;3.85;;;;;;;5.70;62.69;101010.10;1822103;78;25446;-51
2023/05/28 02:18:52;;;;;;;6.10;3.95;;;;;;;5.71;62.66;101006.91;1847538;77;25394;-51
2023/05/28 02:21:19;;;;;;;9.35;4.10;;;;;;;5.70;63.03;101007.42;1807712;79;25891;-51
2023/05/28 02:23:49;;;;;;;7.50;4.15;;;;;;;5.67;62.55;101007.13;1882589;76;25586;-50
2023/05/28 02:26:17;;;;;;;7.30;3.72;;;;;;;5.62;62.65;101007.92;1806474;79;27494;-52
2023/05/28 02:28:44;;;;;;;7.60;4.60;;;;;;;5.58;63.11;101011.66;1882031;76;25476;-50
2023/05/28 02:31:12;;;;;;;22.32;20.43;;;;;;;5.56;63.72;101008.95;1806925;79;25637;-54
2023/05/28 02:33:41;;;;;;;7.15;3.70;;;;;;;5.54;63.56;101009.20;1882140;76;25538;-51
2023/05/28 02:36:12;;;;;;;7.90;4.12;;;;;;;5.52;63.83;101010.00;1807233;79;25562;-53
2023/05/28 02:38:41;;;;;;;8.00;4.33;;;;;;;5.51;63.57;101008.37;1806626;79;27542;-51
2023/05/28 02:41:09;;;;;;;8.85;4.00;;;;;;;5.50;63.67;101005.42;1881860;76;25383;-51
2023/05/28 02:43:36;;;;;;;6.45;3.87;;;;;;;5.49;63.84;101013.19;1807132;79;25610;-51
2023/05/28 02:46:03;;;;;;;7.45;4.20;;;;;;;5.47;63.93;101009.96;1882002;76;25477;-51
2023/05/28 02:48:29;;;;;;;6.65;4.30;;;;;;;5.44;63.95;101009.13;1882071;76;25562;-54
2023/05/28 02:50:55;;;;;;;8.78;4.00;;;;;;;5.45;63.73;101016.63;1882055;76;27431;-51
2023/05/28 02:53:24;;;;;;;7.22;4.05;;;;;;;5.43;63.99;101011.01;1807087;79;25379;-51
2023/05/28 02:55:50;;;;;;;7.90;5.05;;;;;;;5.42;63.91;101009.92;1882344;76;25541;-53
2023/05/28 02:58:17;;;;;;;60.78;56.33;;;;;;;5.42;64.15;101013.94;1807071;79;25534;-50
2023/05/28 03:00:43;;;;;;;15.85;14.35;;;;;;;5.40;64.62;101003.47;1882032;76;25375;-51
2023/05/28 03:03:09;;;;;;;7.58;5.00;;;;;;;5.41;64.98;101010.47;1882005;76;27501;-51
2023/05/28 03:05:36;;;;;;;10.65;9.58;;;;;;;5.39;64.75;101019.28;1806662;79;27269;-50
2023/05/28 03:08:03;;;;;;;11.78;7.92;;;;;;;5.41;64.85;101024.39;1881845;76;25386;-50
2023/05/28 03:10:29;;;;;;;6.47;4.67;;;;;;;5.42;64.96;101026.02;1881964;76;25472;-52
2023/05/28 03:12:55;;;;;;;13.43;6.97;;;;;;;5.42;65.26;101014.75;1882057;76;25537;-52
2023/05/28 03:15:24;;;;;;;8.53;7.40;;;;;;;5.43;65.34;101011.01;1882018;76;27475;-54
2023/05/28 03:17:51;;;;;;;71.22;66.15;;;;;;;5.47;65.38;101015.87;1881143;76;27290;-56
2023/05/28 03:20:17;;;;;;;10.63;6.17;;;;;;;5.48;65.46;101023.63;1882049;76;25593;-52
2023/05/28 03:22:43;;;;;;;58.00;53.90;;;;;;;5.51;65.50;101023.13;1882047;76;25615;-54
2023/05/28 03:25:10;;;;;;;27.70;25.35;;;;;;;5.53;65.65;101015.63;1806856;79;25526;-56
2023/05/28 03:27:36;;;;;;;7.08;4.12;;;;;;;5.58;65.86;101017.03;1807158;79;27510;-54
2023/05/28 03:30:03;;;;;;;8.00;4.87;;;;;;;5.59;65.88;101015.14;1881354;76;32379;-54
2023/05/28 03:32:30;;;;;;;8.20;4.95;;;;;;;5.63;65.93;101016.23;1805818;79;25604;-50
2023/05/28 03:34:56;;;;;;;8.43;5.58;;;;;;;5.67;66.21;101022.72;1881646;76;25431;-50
2023/05/28 03:37:22;;;;;;;8.05;4.90;;;;;;;5.70;66.23;101020.84;1882131;76;25370;-51
2023/05/28 03:39:48;;;;;;;12.50;11.28;;;;;;;5.74;66.37;101024.64;1807092;79;27518;-51
2023/05/28 03:42:15;;;;;;;8.20;6.58;;;;;;;5.80;66.54;101025.47;1881564;76;25507;-53
2023/05/28 03:44:43;;;;;;;9.08;4.55;;;;;;;5.86;66.54;101030.36;1881494;75;25572;-51
2023/05/28 03:47:09;;;;;;;11.43;5.00;;;;;;;5.90;66.74;101029.56;1882005;76;25845;-53
2023/05/28 03:49:35;;;;;;;10.55;5.00;;;;;;;5.96;66.96;101032.59;1806806;79;25435;-53
2023/05/28 03:52:01;;;;;;;7.70;4.25;;;;;;;6.01;67.07;101031.83;1807076;79;27527;-55
2023/05/28 03:54:27;;;;;;;9.50;4.60;;;;;;;6.07;67.23;101033.45;1881950;76;25384;-56
2023/05/28 03:56:53;;;;;;;9.18;4.30;;;;;;;6.16;67.45;101037.80;1881990;76;25567;-55
2023/05/28 03:59:19;;;;;;;77.27;71.77;;;;;;;6.23;67.48;101038.39;1881945;76;35010;-55
2023/05/28 04:01:45;;;;;;;83.12;77.20;;;;;;;6.32;68.32;101028.75;1806593;79;25626;-52
2023/05/28 04:04:11;;;;;;;29.35;27.15;;;;;;;6.44;68.76;101031.22;1881752;76;27541;-52
2023/05/28 04:06:38;;;;;;;22.13;20.12;;;;;;;6.60;68.95;101042.82;1881961;76;25577;-53
2023/05/28 04:09:04;;;;;;;82.65;76.95;;;;;;;6.72;68.37;101036.70;1882045;76;25507;-55
2023/05/28 04:11:30;;;;;;;78.87;73.42;;;;;;;6.85;68.81;101031.34;1881974;76;25380;-54
2023/05/28 04:13:57;;;;;;;80.97;75.35;;;;;;;6.99;68.75;101032.17;1807110;79;25622;-55
2023/05/28 04:16:24;;;;;;;79.65;73.95;;;;;;;7.14;68.94;101035.43;1881919;76;27441;-52
2023/05/28 04:18:51;;;;;;;7.37;4.10;;;;;;;7.29;68.93;101030.06;1806167;79;25798;-52
2023/05/28 04:21:19;;;;;;;7.17;3.37;;;;;;;7.44;68.35;101031.41;1837411;78;25375;-53
2023/05/28 04:23:45;;;;;;;11.80;5.80;;;;;;;7.58;68.26;101031.66;1805192;79;25436;-52
2023/05/28 04:26:11;;;;;;;80.47;74.97;;;;;;;7.72;68.21;101029.77;1840161;78;25426;-51
2023/05/28 04:28:37;;;;;;;79.12;73.83;;;;;;;7.86;68.21;101020.83;1807049;79;27457;-54
2023/05/28 04:31:04;;;;;;;81.63;75.95;;;;;;;8.01;67.88;101023.23;1839959;78;27370;-55
2023/05/28 04:33:31;;;;;;;79.20;73.62;;;;;;;8.17;67.88;101027.52;1807038;79;25561;-53
2023/05/28 04:35:59;;;;;;;80.83;75.32;;;;;;;8.33;67.70;101022.06;1839993;78;25426;-55
2023/05/28 04:38:33;;;;;;;81.70;76.07;;;;;;;8.48;67.24;101022.55;1807008;79;25630;-55
2023/05/28 04:41:05;;;;;;;12.63;10.75;;;;;;;8.63;66.89;101025.17;1840103;78;28127;-55
2023/05/28 04:43:35;;;;;;;8.00;3.02;;;;;;;8.78;66.02;101025.63;1749177;81;25552;-55
2023/05/28 04:46:03;;;;;;;49.53;46.10;;;;;;;8.90;65.80;101024.75;1774939;80;25435;-55
2023/05/28 04:48:35;;;;;;;79.75;74.37;;;;;;;9.02;65.97;101016.86;1774825;80;25671;-55
2023/05/28 04:51:03;;;;;;;82.25;76.30;;;;;;;9.10;65.03;101011.66;1774994;80;25469;-55
2023/05/28 04:53:29;;;;;;;81.05;75.20;;;;;;;9.27;64.90;101016.66;1774766;80;27592;-53
2023/05/28 04:55:56;;;;;;;81.17;75.28;;;;;;;9.41;64.74;101013.32;1774677;80;25792;-54
2023/05/28 04:58:22;;;;;;;79.40;74.20;;;;;;;9.54;64.57;101012.67;1774716;80;25503;-53
2023/05/28 05:00:48;;;;;;;79.35;73.90;;;;;;;9.68;64.69;101014.95;1774744;80;25506;-53
2023/05/28 05:03:14;;;;;;;80.12;74.85;;;;;;;9.85;64.26;101013.16;1774849;80;25536;-55
2023/05/28 05:05:41;;;;;;;79.35;74.25;;;;;;;10.00;63.30;101008.70;1774811;80;27452;-54
2023/05/28 05:08:09;;;;;;;80.97;75.62;;;;;;;10.10;62.72;101012.64;1774611;80;27289;-53
2023/05/28 05:10:35;;;;;;;79.05;73.87;;;;;;;10.25;62.47;101011.66;1774051;80;26019;-52
2023/05/28 05:13:01;;;;;;;82.30;76.90;;;;;;;10.42;62.69;101013.37;1774106;80;34772;-54
2023/05/28 05:15:27;;;;;;;76.97;71.97;;;;;;;10.58;62.20;101015.88;1822463;78;25491;-55
2023/05/28 05:17:53;;;;;;;79.07;73.80;;;;;;;10.70;61.33;101015.44;1806966;79;27453;-54
2023/05/28 05:20:20;;;;;;;6.42;2.92;;;;;;;10.87;61.06;101015.73;1839831;78;25579;-53
2023/05/28 05:22:46;;;;;;;76.07;71.17;;;;;;;11.05;60.68;101020.06;1807026;79;25372;-51
2023/05/28 05:25:12;;;;;;;42.83;40.12;;;;;;;11.26;60.65;101009.73;1840003;78;34624;-55
2023/05/28 05:27:38;;;;;;;77.22;72.12;;;;;;;11.50;60.56;101004.98;1807071;79;25612;-53
2023/05/28 05:30:07;;;;;;;6.10;2.15;;;;;;;11.74;59.69;101017.57;1840041;78;29656;-54
2023/05/28 05:32:33;;;;;;;3.27;2.00;;;;;;;11.96;58.43;101020.98;1807250;79;25615;-58
2023/05/28 05:34:59;;;;;;;4.78;2.12;;;;;;;12.19;58.85;101013.77;1840061;78;25439;-58
2023/05/28 05:37:26;;;;;;;46.65;43.35;;;;;;;12.43;57.79;101008.66;1807026;79;25556;-60
2023/05/28 05:39:52;;;;;;;8.40;2.37;;;;;;;12.65;56.27;101012.80;1839216;78;26005;-59
2023/05/28 05:42:18;;;;;;;8.93;2.30;;;;;;;12.86;56.25;101009.06;1806589;79;27472;-59
2023/05/28 05:44:44;;;;;;;11.45;5.55;;;;;;;13.09;56.39;101006.36;1839717;78;25585;-58
2023/05/28 05:47:11;;;;;;;30.17;28.32;;;;;;;13.33;56.14;101004.74;1807039;79;25426;-58
2023/05/28 05:49:37;;;;;;;76.70;72.00;;;;;;;13.51;55.61;100993.41;1839994;78;25590;-60
2023/05/28 05:52:05;;;;;;;74.45;69.90;;;;;;;13.71;54.57;101003.51;1807056;79;25646;-59
2023/05/28 05:54:31;;;;;;;76.57;71.90;;;;;;;13.85;53.66;100996.61;1840022;78;27559;-60
2023/05/28 05:56:59;;;;;;;75.72;70.83;;;;;;;13.96;52.81;100999.27;1806953;79;25609;-59
2023/05/28 05:59:25;;;;;;;76.20;71.10;;;;;;;14.09;52.35;100996.21;1839982;78;25614;-59
2023/05/28 06:01:51;;;;;;;3.70;1.80;;;;;;;14.19;51.75;100995.35;1806965;79;25511;-54
2023/05/28 06:04:17;;;;;;;8.15;1.92;;;;;;;14.33;51.29;100995.22;1840109;78;25547;-55
2023/05/28 06:06:44;;;;;;;3.98;2.10;;;;;;;14.49;50.78;100997.48;1807134;79;29762;-54
2023/05/28 06:09:11;;;;;;;6.58;2.00;;;;;;;14.61;50.68;101001.80;1840157;78;25606;-56
2023/05/28 06:11:38;;;;;;;4.28;1.87;;;;;;;14.78;50.56;101002.38;1807164;79;25526;-53
2023/05/28 06:14:06;;;;;;;13.98;1.80;;;;;;;14.92;49.90;101000.84;1840240;78;25531;-55
2023/05/28 06:16:32;;;;;;;6.92;1.80;;;;;;;15.05;48.60;100998.52;1807230;79;25633;-56
2023/05/28 06:18:59;;;;;;;3.58;2.17;;;;;;;15.19;48.88;101001.61;1839990;78;27454;-55
2023/05/28 06:21:25;;;;;;;4.08;2.22;;;;;;;15.30;48.21;101005.03;1807160;79;25541;-55
2023/05/28 06:23:52;;;;;;;5.50;1.87;;;;;;;15.45;47.57;101007.03;1840149;78;25369;-53
2023/05/28 06:26:18;;;;;;;4.08;1.47;;;;;;;15.64;47.70;101005.28;1807156;79;25558;-56
2023/05/28 06:28:44;;;;;;;2.45;1.50;;;;;;;15.87;48.17;101001.80;1840360;78;25593;-55
2023/05/28 06:31:11;;;;;;;9.98;1.77;;;;;;;16.12;46.87;101005.51;1807193;79;27446;-55
2023/05/28 06:33:37;;;;;;;9.60;1.55;;;;;;;16.17;46.01;101002.59;1840072;78;25436;-53
2023/05/28 06:36:06;;;;;;;5.08;1.90;;;;;;;16.31;46.00;101002.38;1807183;79;25621;-56
2023/05/28 06:38:33;;;;;;;3.95;1.75;;;;;;;16.49;45.74;101004.42;1840227;78;25451;-53
2023/05/28 06:40:59;;;;;;;4.83;1.40;;;;;;;16.71;45.72;101004.66;1807179;79;25601;-55
2023/05/28 06:43:25;;;;;;;6.85;1.40;;;;;;;16.95;45.25;100996.39;1839871;78;27532;-52
2023/05/28 06:45:52;;;;;;;5.25;1.82;;;;;;;17.22;44.76;101001.84;1806774;79;25466;-55
2023/05/28 06:48:18;;;;;;;2.47;1.30;;;;;;;17.44;44.03;100993.81;1840141;78;25616;-54
2023/05/28 06:50:44;;;;;;;2.58;1.25;;;;;;;17.65;43.39;100992.94;1807153;79;25547;-52
2023/05/28 06:53:10;;;;;;;3.47;1.10;;;;;;;17.86;41.96;100986.00;1866329;76;25352;-50
2023/05/28 06:55:36;;;;;;;7.35;1.95;;;;;;;18.03;42.28;100980.89;1876514;76;27561;-59
2023/05/28 06:58:03;;;;;;;14.10;1.30;;;;;;;18.21;42.06;100981.47;1807311;79;25515;-60
2023/05/28 07:00:29;;;;;;;10.63;1.92;;;;;;;18.37;41.23;100985.11;1840081;78;25353;-62
2023/05/28 07:02:56;;;;;;;4.67;1.10;;;;;;;18.50;41.03;100980.97;1807127;79;25555;-60
2023/05/28 07:05:22;;;;;;;3.50;1.10;;;;;;;18.64;40.55;100980.00;1806285;79;25390;-60
2023/05/28 07:07:48;;;;;;;4.00;1.20;;;;;;;18.79;39.56;100975.16;1807077;79;27549;-60
2023/05/28 07:10:15;;;;;;;1.57;0.90;;;;;;;18.93;39.75;100976.16;1806572;79;25600;-60
2023/05/28 07:12:41;;;;;;;7.80;1.55;;;;;;;19.13;38.94;100977.09;1807123;79;25605;-61
2023/05/28 07:15:10;;;;;;;37.95;35.40;;;;;;;19.32;38.58;100977.80;1807046;79;25516;-62
2023/05/28 07:17:36;;;;;;;70.87;66.45;;;;;;;19.56;37.97;100975.49;1840328;78;25610;-63
2023/05/28 07:20:06;;;;;;;72.87;68.28;;;;;;;19.80;37.69;100974.31;1807024;79;27848;-63
2023/05/28 07:22:34;;;;;;;59.23;55.73;;;;;;;20.06;36.73;100975.14;1840032;78;27249;-62
2023/05/28 07:25:01;;;;;;;76.05;70.75;;;;;;;20.23;36.14;100974.74;1807130;79;25557;-62
2023/05/28 07:27:27;;;;;;;41.75;39.30;;;;;;;20.39;36.08;100977.44;1840170;78;25650;-62
2023/05/28 07:29:56;;;;;;;65.12;61.40;;;;;;;20.68;35.43;100978.08;1807268;79;25585;-60
2023/05/28 07:32:23;;;;;;;;;;;;;;;20.93;35.11;100970.92;1844692;77;29617;-61
2023/05/28 07:34:49;;;;;;;69.58;65.30;;;;;;;21.19;34.59;100966.88;1841828;77;33194;-63
2023/05/28 07:37:17;;;;;;;63.52;59.85;;;;;;;21.48;34.44;100963.89;1879969;76;25497;-63
2023/05/28 07:39:43;;;;;;;68.78;64.58;;;;;;;21.72;33.90;100970.38;1807303;79;25599;-62
2023/05/28 07:42:10;;;;;;;65.65;62.05;;;;;;;21.72;33.31;100970.96;1840137;78;25637;-62
2023/05/28 07:44:37;;;;;;;69.17;65.28;;;;;;;21.88;33.46;100967.50;1807082;79;27502;-64
2023/05/28 07:47:04;;;;;;;2.58;1.10;;;;;;;22.00;32.55;100963.15;1839993;78;27259;-64
2023/05/28 07:49:30;;;;;;;4.67;1.17;;;;;;;22.21;32.52;100959.11;1807085;79;25516;-64
2023/05/28 07:51:57;;;;;;;35.55;33.30;;;;;;;22.37;32.06;100963.91;1840148;78;25498;-64
2023/05/28 07:54:23;;;;;;;66.85;62.98;;;;;;;22.52;31.77;100957.19;1807156;79;25363;-60
2023/05/28 07:56:50;;;;;;;6.25;5.80;;;;;;;22.71;31.36;100955.66;1840106;78;27543;-62
2023/05/28 07:59:17;;;;;;;7.87;1.27;;;;;;;22.88;31.04;100966.69;1806977;79;25376;-62
2023/05/28 08:01:45;;;;;;;5.62;1.30;;;;;;;23.08;30.68;100962.39;1839989;77;30538;-60
2023/05/28 08:04:12;;;;;;;4.37;1.35;;;;;;;23.08;30.32;100968.69;1805759;79;26085;-61
2023/05/28 08:06:38;;;;;;;2.00;1.25;;;;;;;23.09;30.32;100961.23;1839608;78;25522;-62
2023/05/28 08:09:05;;;;;;;4.15;1.30;;;;;;;23.28;30.34;100961.61;1807121;79;27427;-62
2023/05/28 08:11:31;;;;;;;1.40;1.07;;;;;;;23.49;30.14;100957.64;1840004;78;25403;-57
2023/05/28 08:13:57;;;;;;;2.35;1.10;;;;;;;23.69;28.99;100962.34;1807238;79;25122;-58
2023/05/28 08:16:24;;;;;;;6.65;1.27;;;;;;;23.82;29.29;100960.69;1840037;78;25471;-58
2023/05/28 08:18:50;;;;;;;5.40;1.52;;;;;;;24.08;29.41;100945.87;1807145;79;25376;-58
2023/05/28 08:21:16;;;;;;;2.83;1.12;;;;;;;24.42;28.98;100947.05;1835313;78;28221;-59
2023/05/28 08:23:43;;;;;;;3.00;1.05;;;;;;;24.60;28.24;100950.70;1741994;81;25465;-59
2023/05/28 08:26:09;;;;;;;3.12;1.30;;;;;;;24.69;28.08;100949.53;1763274;81;25408;-59
2023/05/28 08:28:36;;;;;;;5.72;1.27;;;;;;;24.76;27.68;100954.51;1770527;81;25556;-60
2023/05/28 08:31:02;;;;;;;4.03;0.90;;;;;;;24.89;27.04;100956.91;1834803;77;25356;-59
2023/05/28 08:33:28;;;;;;;3.35;1.22;;;;;;;25.02;27.60;100953.20;1834520;78;27513;-58
2023/05/28 08:35:54;;;;;;;5.20;1.27;;;;;;;25.12;26.80;100952.42;1834352;78;25387;-57
2023/05/28 08:38:22;;;;;;;9.13;3.80;;;;;;;25.33;26.93;100946.14;1834517;77;25582;-62
2023/05/28 08:40:54;;;;;;;13.32;8.28;;;;;;;25.56;26.97;100938.84;1834412;78;25586;-63
2023/05/28 08:43:20;;;;;;;6.83;1.07;;;;;;;25.82;26.92;100944.54;1834507;78;25544;-63
2023/05/28 08:45:47;;;;;;;5.55;1.32;;;;;;;25.93;26.01;100938.19;1834542;78;28161;-62
2023/05/28 08:48:15;;;;;;;4.47;1.20;;;;;;;25.85;25.06;100932.67;1834359;78;25379;-65
2023/05/28 08:50:46;;;;;;;1.57;0.83;;;;;;;25.62;25.21;100934.46;1834891;78;25352;-60
2023/05/28 08:53:20;;;;;;;2.87;0.95;;;;;;;25.56;25.70;100935.25;1834479;78;25489;-55
2023/05/28 08:55:47;;;;;;;3.58;1.00;;;;;;;25.68;25.60;100942.58;1834556;78;25427;-58
2023/05/28 08:58:16;;;;;;;7.90;1.15;;;;;;;25.84;25.44;100924.75;1834435;78;29586;-53
2023/05/28 09:00:42;;;;;;;2.27;1.27;;;;;;;26.02;25.36;100926.92;1834465;78;25534;-57
2023/05/28 09:03:09;;;;;;;4.47;1.30;;;;;;;26.40;25.50;100923.02;1834427;78;25522;-56
2023/05/28 09:05:39;;;;;;;2.30;1.37;;;;;;;26.57;24.98;100931.07;1834418;78;26126;-56
2023/05/28 09:08:09;;;;;;;5.17;1.20;;;;;;;26.53;24.24;100938.63;1834487;78;25408;-56
2023/05/28 09:10:38;;;;;;;2.77;1.42;;;;;;;26.38;24.16;100932.34;1834524;78;27433;-57
2023/05/28 09:13:04;;;;;;;1.90;1.20;;;;;;;26.37;24.09;100925.20;1834637;77;25884;-58
2023/05/28 09:15:32;;;;;;;3.95;1.30;;;;;;;26.16;24.12;100926.69;1834450;78;25558;-49
2023/05/28 09:18:02;;;;;;;2.95;1.60;;;;;;;26.21;24.15;100927.66;1834424;78;25619;-64
2023/05/28 09:20:28;;;;;;;6.10;1.30;;;;;;;26.30;24.00;100921.08;1802841;79;25564;-65
2023/05/28 09:23:06;;;;;;;2.95;1.47;;;;;;;26.49;23.91;100924.58;1840220;77;27823;-64
2023/05/28 09:25:38;;;;;;;4.10;1.37;;;;;;;26.30;22.74;100921.69;1860548;77;25903;-65
2023/05/28 09:28:04;;;;;;;4.37;1.15;;;;;;;26.03;23.58;100915.23;1774018;80;25593;-62
2023/05/28 09:30:37;;;;;;;6.33;1.30;;;;;;;26.32;24.07;100906.21;1789037;79;25690;-62
2023/05/28 09:33:06;;;;;;;3.15;0.90;;;;;;;26.74;23.97;100914.17;1789754;79;25557;-62
2023/05/28 09:35:35;;;;;;;5.95;1.50;;;;;;;26.82;23.15;100911.55;1789636;80;27510;-62
2023/05/28 09:38:09;;;;;;;5.25;1.20;;;;;;;26.39;22.70;100904.82;1774464;80;25704;-62
2023/05/28 09:40:43;;;;;;;5.35;1.87;;;;;;;26.20;22.86;100904.67;1795841;79;25513;-63
2023/05/28 09:43:11;;;;;;;7.03;1.40;;;;;;;25.86;22.84;100892.70;1795899;79;25490;-63
2023/05/28 09:45:38;;;;;;;6.63;2.87;;;;;;;25.80;23.56;100886.58;1796235;79;25595;-63
2023/05/28 09:48:04;;;;;;;3.12;1.50;;;;;;;26.22;23.84;100895.95;1795904;78;27510;-62
2023/05/28 09:50:31;;;;;;;3.92;1.17;;;;;;;26.34;23.35;100894.14;1774669;80;25588;-62
2023/05/28 09:53:00;;;;;;;7.20;1.20;;;;;;;26.51;23.28;100888.33;1789934;79;25433;-63
2023/05/28 09:55:28;;;;;;;4.60;1.15;;;;;;;26.69;23.23;100887.45;1775537;80;26451;-64
2023/05/28 09:58:04;;;;;;;5.55;1.22;;;;;;;26.89;23.32;100883.57;1789884;79;25421;-63
2023/05/28 10:00:46;;;;;;;4.45;1.35;;;;;;;27.02;23.62;100878.52;1789714;80;28142;-64
2023/05/28 10:03:23;;;;;;;4.17;1.10;;;;;;;27.32;23.33;100872.93;1862960;76;25561;-63
2023/05/28 10:05:57;;;;;;;5.37;1.10;;;;;;;27.68;23.35;100865.63;1774745;80;25441;-63
2023/05/28 10:08:24;;;;;;;7.45;1.20;;;;;;;27.99;22.45;100871.27;1792034;79;26407;-63
2023/05/28 10:10:54;;;;;;;3.90;1.20;;;;;;;28.12;22.57;100874.31;1775440;80;25382;-63
2023/05/28 10:13:22;;;;;;;5.17;2.35;;;;;;;28.03;22.23;100876.21;1795991;79;27510;-61
2023/05/28 10:15:49;;;;;;;2.90;1.30;;;;;;;27.98;22.56;100861.98;1774014;80;25664;-62
2023/05/28 10:18:18;;;;;;;4.90;1.00;;;;;;;28.11;21.68;100863.00;1859287;76;25610;-61
2023/05/28 10:20:46;;;;;;;3.75;1.10;;;;;;;27.89;22.00;100863.24;1868260;76;25786;-61
2023/05/28 10:23:14;;;;;;;7.22;1.00;;;;;;;27.97;21.77;100866.73;1882093;76;25415;-61
2023/05/28 10:25:40;;;;;;;3.40;1.00;;;;;;;27.92;21.41;100871.36;1807460;79;27019;-60
2023/05/28 10:28:12;;;;;;;3.22;1.00;;;;;;;27.90;21.77;100869.58;1840378;78;25815;-61
2023/05/28 10:30:38;;;;;;;3.27;0.85;;;;;;;28.21;22.02;100862.68;1807193;79;25392;-60
2023/05/28 10:33:07;;;;;;;4.35;1.10;;;;;;;28.46;21.80;100861.74;1840613;78;25563;-60
2023/05/28 10:35:37;;;;;;;;;;;;;;;28.43;21.12;100862.58;1787178;79;25633;-61
2023/05/28 10:38:27;;;;;;;4.85;1.07;;;;;;;28.26;21.11;100860.22;1840562;78;27926;-59
2023/05/28 10:41:02;;;;;;;3.47;1.02;;;;;;;28.44;21.40;100850.25;1623524;88;25640;-59
2023/05/28 10:43:45;;;;;;;5.40;1.27;;;;;;;28.24;20.69;100854.29;1650378;86;25598;-62
2023/05/28 10:46:25;;;;;;;7.78;1.25;;;;;;;28.01;21.20;100846.66;1681428;84;25569;-61
2023/05/28 10:49:16;;;;;;;5.60;1.27;;;;;;;28.11;21.46;100841.56;1650425;86;25819;-57
2023/05/28 10:51:59;;;;;;;5.92;1.37;;;;;;;28.23;21.26;100839.41;1681302;84;28158;-60
2023/05/28 10:54:45;;;;;;;3.33;0.90;;;;;;;28.25;21.54;100846.75;1650178;86;25588;-59
2023/05/28 10:57:14;;;;;;;4.45;0.93;;;;;;;28.40;21.73;100841.18;1680002;85;25644;-61
2023/05/28 10:59:54;;;;;;;38.53;19.98;;;;;;;28.20;21.06;100831.31;1650248;86;26059;-62
2023/05/28 11:02:28;;;;;;;31.65;15.63;;;;;;;28.22;21.97;100831.67;1680808;85;25616;-61
2023/05/28 11:05:02;;;;;;;6.92;3.47;;;;;;;28.56;21.77;100839.80;1682779;77;28140;-63
2023/05/28 11:07:38;;;;;;;9.18;3.30;;;;;;;28.94;21.95;100839.61;1762302;81;25635;-63
2023/05/28 11:10:09;;;;;;;4.47;1.50;;;;;;;29.29;21.56;100831.89;1811605;79;25540;-63
2023/05/28 11:12:38;;;;;;;2.90;1.40;;;;;;;29.44;20.99;100824.85;1811072;79;25513;-64
2023/05/28 11:15:08;;;;;;;5.00;1.27;;;;;;;29.51;20.74;100824.71;1812027;79;25446;-63
2023/05/28 11:17:42;;;;;;;2.62;1.27;;;;;;;29.56;20.88;100817.25;1811975;79;27636;-64
2023/05/28 11:20:26;;;;;;;1.75;0.93;;;;;;;29.67;20.58;100812.84;1810525;79;26049;-70
2023/05/28 11:22:54;;;;;;;2.85;1.02;;;;;;;29.87;20.78;100810.71;1810637;79;25582;-66
2023/05/28 11:25:22;;;;;;;7.83;1.63;;;;;;;30.07;20.78;100811.47;1812191;79;25673;-67
2023/05/28 11:27:50;;;;;;;6.10;1.17;;;;;;;30.14;20.56;100814.10;1812253;79;25442;-66